Home   Weather   USA   Fremont   Past weeks
Flag for USA

Past Weather in Fremont, California, USA — Yesterday and Last 2 Weeks

Currently: 68 °F. Sunny. (Weather station: Moffett Field, USA). See more current weather

Past Weather in Fremont — Graph

°F

Fremont Temperature Yesterday

Maximum temperature yesterday: 81 °F (at 3:35 pm)
Minimum temperature yesterday: 55 °F (at 4:55 am)
Average temperature yesterday: 68 °F

High & Low Weather Summary for the Past Weeks

 TemperatureHumidityPressure
High84 °F (Jun 5, 1:35 pm)94% (Jun 3, 7:15 am)30.06 "Hg (Jun 3, 7:15 am)
Low52 °F (Jun 14, 4:55 am)17% (Jun 17, 7:35 pm)29.79 "Hg (Jun 5, 6:15 pm)
Average66 °F65%29.91 "Hg
* Reported Jun 3 7:15 am — Jun 18 7:55 am, Fremont. Weather by CustomWeather, © 2024

Note: Actual official high and low records may vary slightly from our data, if they occured in-between our weather recording intervals... More about our weather records

Fremont Weather History for the Previous 24 Hours

Scroll right to see more
 ConditionsComfort  
Time TempWeatherWind HumidityBarometerVisibility
7:55 am
Tue, Jun 18
66 °FSunny.5 mph46%29.81 "Hg9 mi
7:35 am64 °FSunny.3 mph49%29.81 "Hg9 mi
6:55 am61 °FSunny.No wind59%29.81 "Hg9 mi
5:35 am59 °FPassing clouds.No wind55%29.80 "Hg10 mi
3:55 am61 °FOvercast.No wind63%29.79 "Hg10 mi
2:35 am61 °FOvercast.No wind68%29.79 "Hg10 mi
1:35 am61 °FOvercast.No wind68%29.79 "Hg10 mi
12:35 am64 °FOvercast.No wind43%29.80 "Hg10 mi
11:35 pm
Mon, Jun 17
64 °FMostly cloudy.No wind40%29.82 "Hg10 mi
11:15 pm66 °FMostly cloudy.No wind28%29.82 "Hg10 mi
10:35 pm68 °FPassing clouds.3 mph24%29.82 "Hg10 mi
10:15 pm70 °FPassing clouds.7 mph21%29.82 "Hg10 mi
9:55 pm70 °FPassing clouds.6 mph20%29.82 "Hg10 mi
9:35 pm72 °FPassing clouds.6 mph19%29.82 "Hg10 mi
9:15 pm72 °FClear.7 mph19%29.81 "Hg10 mi
8:55 pm72 °FClear.8 mph19%29.81 "Hg10 mi
8:35 pm73 °FClear.9 mph19%29.81 "Hg10 mi
8:15 pm73 °FSunny.8 mph19%29.81 "Hg10 mi
7:55 pm75 °FSunny.9 mph18%29.81 "Hg10 mi
7:35 pm77 °FSunny.9 mph17%29.81 "Hg10 mi
7:15 pm77 °FSunny.12 mph19%29.81 "Hg10 mi
6:35 pm79 °FSunny.13 mph21%29.81 "Hg10 mi
6:10 pm79 °FSunny.13 mph24%29.81 "Hg10 mi
5:55 pm79 °FSunny.10 mph24%29.81 "Hg10 mi
5:35 pm79 °FSunny.14 mph23%29.82 "Hg10 mi
4:55 pm81 °FSunny.15 mph20%29.83 "Hg10 mi
4:35 pm81 °FSunny.12 mph20%29.82 "Hg10 mi
3:55 pm81 °FSunny.15 mph18%29.83 "Hg9 mi
3:35 pm81 °FSunny.12 mph20%29.84 "Hg9 mi
2:55 pm79 °FSunny.12 mph23%29.85 "Hg10 mi
2:35 pm79 °FSunny.12 mph23%29.86 "Hg10 mi
2:15 pm79 °FSunny.12 mph24%29.87 "Hg9 mi
1:35 pm77 °FSunny.13 mph30%29.88 "Hg10 mi
12:55 pm73 °FSunny.14 mph38%29.89 "Hg10 mi
12:30 pm73 °FSunny.10 mph38%29.89 "Hg10 mi
12:15 pm72 °FSunny.16 mph44%29.90 "Hg10 mi
11:35 am70 °FSunny.12 mph50%29.90 "Hg9 mi
11:15 am70 °FSunny.9 mph46%29.90 "Hg9 mi
10:55 am70 °FSunny.9 mph46%29.90 "Hg9 mi
10:35 am68 °FSunny.5 mph49%29.91 "Hg9 mi
10:15 am66 °FSunny.8 mph49%29.91 "Hg10 mi
9:35 am63 °FSunny.6 mph59%29.92 "Hg9 mi
9:15 am63 °FSunny.No wind59%29.92 "Hg8 mi
Weather by CustomWeather, © 2024

See weather overview